createdAt,value
2019-01-27T00:00:40.982Z,3.54
2019-01-27T00:01:40.880Z,3.62
2019-01-27T00:02:41.215Z,3.64
2019-01-27T00:03:40.998Z,3.58
2019-01-27T00:04:41.322Z,3.61
2019-01-27T00:05:41.309Z,3.61
2019-01-27T00:06:42.309Z,3.58
2019-01-27T00:07:40.950Z,3.61
2019-01-27T00:08:40.840Z,3.61
2019-01-27T00:09:40.752Z,3.57
2019-01-27T00:10:40.770Z,3.57
2019-01-27T00:11:41.905Z,3.58
2019-01-27T00:12:40.772Z,3.62
2019-01-27T00:13:40.795Z,3.60
2019-01-27T00:14:40.921Z,3.57
2019-01-27T00:15:40.742Z,3.64
2019-01-27T00:16:40.741Z,3.64
2019-01-27T00:17:40.716Z,3.65
2019-01-27T00:18:40.829Z,3.65
2019-01-27T00:19:40.872Z,3.61
2019-01-27T00:20:40.765Z,3.58
2019-01-27T00:21:40.827Z,3.61
2019-01-27T00:22:40.663Z,3.61
2019-01-27T00:23:40.669Z,3.65
2019-01-27T00:24:40.992Z,3.67
2019-01-27T00:25:40.665Z,3.61
2019-01-27T00:26:40.956Z,3.57
2019-01-27T00:27:40.662Z,3.57
2019-01-27T00:28:41.619Z,3.49
2019-01-27T00:29:42.415Z,3.54
2019-01-27T00:30:40.799Z,3.44
2019-01-27T00:31:40.599Z,3.61
2019-01-27T00:32:40.584Z,3.57
2019-01-27T00:33:40.572Z,3.54
2019-01-27T00:34:40.581Z,3.54
2019-01-27T00:35:40.575Z,3.57
2019-01-27T00:36:40.547Z,3.58
2019-01-27T00:37:41.851Z,3.58
2019-01-27T00:38:40.538Z,3.58
2019-01-27T00:39:40.526Z,3.54
2019-01-27T00:40:40.537Z,3.57
2019-01-27T00:41:40.513Z,3.67
2019-01-27T00:42:40.511Z,3.54
2019-01-27T00:43:40.499Z,3.62
2019-01-27T00:44:41.600Z,3.58
2019-01-27T00:45:40.510Z,3.62
2019-01-27T00:46:40.473Z,3.57
2019-01-27T00:47:40.462Z,3.64
2019-01-27T00:48:40.459Z,3.61
2019-01-27T00:49:40.464Z,3.64
2019-01-27T00:50:40.444Z,3.54
2019-01-27T00:51:41.012Z,3.61
2019-01-27T00:52:40.426Z,3.57
2019-01-27T00:53:40.418Z,3.62
2019-01-27T00:54:40.410Z,3.58
2019-01-27T00:55:40.416Z,3.60
2019-01-27T00:56:40.399Z,3.60
2019-01-27T00:57:40.393Z,3.61
2019-01-27T00:58:40.416Z,3.64
2019-01-27T00:59:40.374Z,3.62
2019-01-27T01:00:40.377Z,3.62
2019-01-27T01:01:40.360Z,3.57
2019-01-27T01:02:40.406Z,3.61
2019-01-27T01:03:40.348Z,3.53
2019-01-27T01:04:40.363Z,3.54
2019-01-27T01:05:41.917Z,3.57
2019-01-27T01:06:40.322Z,3.54
2019-01-27T01:07:40.314Z,3.58
2019-01-27T01:08:40.310Z,3.65
2019-01-27T01:09:40.299Z,3.61
2019-01-27T01:10:40.293Z,3.54
2019-01-27T01:11:40.288Z,3.53
2019-01-27T01:12:40.276Z,3.58
2019-01-27T01:13:40.270Z,3.61
2019-01-27T01:14:40.281Z,3.61
2019-01-27T01:15:40.258Z,3.61
2019-01-27T01:16:40.249Z,3.53
2019-01-27T01:17:40.244Z,3.53
2019-01-27T01:18:40.238Z,3.53
2019-01-27T01:19:40.225Z,3.61
2019-01-27T01:20:40.229Z,3.57
2019-01-27T01:22:33.392Z,3.58
2019-01-27T01:23:33.341Z,3.62
2019-01-27T01:25:26.350Z,3.62
2019-01-27T01:26:25.996Z,3.65
2019-01-27T01:28:19.134Z,3.60
2019-01-27T01:29:19.085Z,3.65
2019-01-27T01:31:11.934Z,3.71
2019-01-27T01:32:11.676Z,3.70
2019-01-27T01:34:05.391Z,3.65
2019-01-27T01:35:05.103Z,3.58
2019-01-27T01:36:05.310Z,3.58
2019-01-27T01:37:05.353Z,3.62
2019-01-27T01:38:05.330Z,3.68
2019-01-27T01:39:05.334Z,3.68
2019-01-27T01:40:05.293Z,3.52
2019-01-27T01:41:05.300Z,3.68
2019-01-27T01:42:05.059Z,3.60
2019-01-27T01:43:05.271Z,3.62
2019-01-27T01:44:05.256Z,3.65
2019-01-27T01:45:06.868Z,3.65
2019-01-27T01:46:05.234Z,3.61
2019-01-27T01:47:05.279Z,3.64
2019-01-27T01:48:05.343Z,3.64
2019-01-27T01:49:05.277Z,3.54
2019-01-27T01:50:05.257Z,3.67
2019-01-27T01:51:05.250Z,3.53
2019-01-27T01:52:05.256Z,3.65
2019-01-27T01:53:05.275Z,3.61
2019-01-27T01:54:05.233Z,3.60
2019-01-27T01:55:05.169Z,3.54
2019-01-27T01:56:05.198Z,3.68
2019-01-27T01:57:05.200Z,3.65
2019-01-27T01:58:05.160Z,3.62
2019-01-27T01:59:05.151Z,3.61
2019-01-27T02:00:05.154Z,3.54
2019-01-27T02:01:05.123Z,3.58
2019-01-27T02:02:05.131Z,3.46
2019-01-27T02:03:05.142Z,3.60
2019-01-27T02:04:05.099Z,3.64
2019-01-27T02:05:04.921Z,3.53
2019-01-27T02:06:05.147Z,3.57
2019-01-27T02:07:05.088Z,3.54
2019-01-27T02:08:05.069Z,3.54
2019-01-27T02:09:05.086Z,3.62
2019-01-27T02:10:05.051Z,3.58
2019-01-27T02:11:05.054Z,3.61
2019-01-27T02:12:05.070Z,3.58
2019-01-27T02:13:12.288Z,3.60
2019-01-27T02:14:58.543Z,3.64
2019-01-27T02:15:58.289Z,3.61
2019-01-27T02:17:51.375Z,3.64
2019-01-27T02:18:58.512Z,3.60
2019-01-27T02:20:44.844Z,3.61
2019-01-27T02:21:44.723Z,3.61
2019-01-27T02:23:37.687Z,3.58
2019-01-27T02:24:37.598Z,3.50
2019-01-27T02:26:30.580Z,3.61
2019-01-27T02:27:30.238Z,3.65
2019-01-27T02:29:23.387Z,3.58
2019-01-27T02:30:23.090Z,3.65
2019-01-27T02:32:16.194Z,3.67
2019-01-27T02:33:15.935Z,3.65
2019-01-27T02:35:09.159Z,3.65
2019-01-27T02:36:08.807Z,3.60
2019-01-27T02:38:02.477Z,3.61
2019-01-27T02:39:02.405Z,3.57
2019-01-27T02:40:55.332Z,3.62
2019-01-27T02:41:55.270Z,3.60
2019-01-27T02:43:48.228Z,3.60
2019-01-27T02:44:48.160Z,3.68
2019-01-27T02:46:41.679Z,3.61
2019-01-27T02:47:41.347Z,3.65
2019-01-27T02:49:34.530Z,3.58
2019-01-27T02:50:34.473Z,3.62
2019-01-27T02:52:27.392Z,3.54
2019-01-27T02:53:27.021Z,3.65
2019-01-27T02:55:20.175Z,3.65
2019-01-27T02:56:20.102Z,3.61
2019-01-27T02:58:13.004Z,3.64
2019-01-27T02:59:13.018Z,3.53
2019-01-27T03:01:05.839Z,3.62
2019-01-27T03:02:05.622Z,3.64
2019-01-27T03:03:59.384Z,3.65
2019-01-27T03:04:59.227Z,3.61
2019-01-27T03:06:52.641Z,3.57
2019-01-27T03:07:52.386Z,3.53
2019-01-27T03:08:52.593Z,3.61
2019-01-27T03:09:52.559Z,3.61
2019-01-27T03:10:52.590Z,3.58
2019-01-27T03:11:52.544Z,3.65
2019-01-27T03:12:52.564Z,3.60
2019-01-27T03:13:52.536Z,3.49
2019-01-27T03:14:52.610Z,3.54
2019-01-27T03:15:52.529Z,3.53
2019-01-27T03:16:52.543Z,3.57
2019-01-27T03:17:52.527Z,3.46
2019-01-27T03:18:52.284Z,3.61
2019-01-27T03:19:52.498Z,3.57
2019-01-27T03:20:52.544Z,3.50
2019-01-27T03:21:52.484Z,3.53
2019-01-27T03:22:52.503Z,3.53
2019-01-27T03:23:52.497Z,3.52
2019-01-27T03:24:52.475Z,3.58
2019-01-27T03:25:52.481Z,3.57
2019-01-27T03:26:52.501Z,3.64
2019-01-27T03:27:52.480Z,3.61
2019-01-27T03:28:52.443Z,3.65
2019-01-27T03:29:52.474Z,3.62
2019-01-27T03:30:52.479Z,3.62
2019-01-27T03:31:52.441Z,3.58
2019-01-27T03:32:52.426Z,3.52
2019-01-27T03:33:52.463Z,3.60
2019-01-27T03:34:52.491Z,3.67
2019-01-27T03:35:52.391Z,3.67
2019-01-27T03:36:52.168Z,3.68
2019-01-27T03:37:59.524Z,3.68
2019-01-27T03:39:45.250Z,3.62
2019-01-27T03:40:45.277Z,3.61
2019-01-27T03:42:38.755Z,3.62
2019-01-27T03:43:38.433Z,3.60
2019-01-27T03:45:31.584Z,3.58
2019-01-27T03:46:31.481Z,3.65
2019-01-27T03:48:24.498Z,3.60
2019-01-27T03:49:24.360Z,3.60
2019-01-27T03:51:17.368Z,3.64
2019-01-27T03:52:17.247Z,3.57
2019-01-27T03:54:10.124Z,3.58
2019-01-27T03:55:09.814Z,3.64
2019-01-27T03:57:03.529Z,3.60
2019-01-27T03:58:05.237Z,3.62
2019-01-27T03:59:56.393Z,3.62
2019-01-27T04:00:56.320Z,3.60
2019-01-27T04:02:49.999Z,3.64
2019-01-27T04:03:49.818Z,3.68
2019-01-27T04:05:42.699Z,3.71
2019-01-27T04:06:42.404Z,3.54
2019-01-27T04:08:35.579Z,3.75
2019-01-27T04:09:35.496Z,3.68
2019-01-27T04:11:28.434Z,3.68
2019-01-27T04:12:28.129Z,3.71
2019-01-27T04:14:21.201Z,3.72
2019-01-27T04:15:21.178Z,3.65
2019-01-27T04:17:14.091Z,3.67
2019-01-27T04:18:14.074Z,3.70
2019-01-27T04:20:07.534Z,3.75
2019-01-27T04:21:07.544Z,3.68
2019-01-27T04:23:00.987Z,3.78
2019-01-27T04:24:00.893Z,3.75
2019-01-27T04:25:53.864Z,3.76
2019-01-27T04:26:53.757Z,3.79
2019-01-27T04:28:47.215Z,3.78
2019-01-27T04:29:46.978Z,3.79
2019-01-27T04:31:40.110Z,3.83
2019-01-27T04:32:39.776Z,3.72
2019-01-27T04:34:32.891Z,3.75
2019-01-27T04:35:32.620Z,3.78
2019-01-27T04:37:25.772Z,3.76
2019-01-27T04:38:25.677Z,3.75
2019-01-27T04:40:18.643Z,3.72
2019-01-27T04:41:18.319Z,3.75
2019-01-27T04:43:11.711Z,3.72
2019-01-27T04:44:11.609Z,3.70
2019-01-27T04:46:04.487Z,3.71
2019-01-27T04:47:04.240Z,3.75
2019-01-27T04:48:57.908Z,3.76
2019-01-27T04:49:57.656Z,3.71
2019-01-27T04:51:50.810Z,3.71
2019-01-27T04:52:50.738Z,3.72
2019-01-27T04:54:44.287Z,3.76
2019-01-27T04:55:44.182Z,3.75
2019-01-27T04:56:43.933Z,3.75
2019-01-27T04:57:44.181Z,3.76
2019-01-27T04:58:44.157Z,3.70
2019-01-27T04:59:44.151Z,3.75
2019-01-27T05:00:44.108Z,3.68
2019-01-27T05:01:44.112Z,3.65
2019-01-27T05:02:44.136Z,3.78
2019-01-27T05:03:44.088Z,3.75
2019-01-27T05:04:44.073Z,3.72
2019-01-27T05:05:44.090Z,3.71
2019-01-27T05:06:44.082Z,3.71
2019-01-27T05:07:44.054Z,3.76
2019-01-27T05:08:44.044Z,3.75
2019-01-27T05:09:44.188Z,3.71
2019-01-27T05:10:44.117Z,3.85
2019-01-27T05:11:44.079Z,3.88
2019-01-27T05:12:43.832Z,3.90
2019-01-27T05:13:44.063Z,3.82
2019-01-27T05:14:44.058Z,3.78
2019-01-27T05:15:44.004Z,3.82
2019-01-27T05:16:43.800Z,3.88
2019-01-27T05:17:43.776Z,3.90
2019-01-27T05:18:44.012Z,3.80
2019-01-27T05:19:44.024Z,3.85
2019-01-27T05:20:43.727Z,3.82
2019-01-27T05:21:43.722Z,3.89
2019-01-27T05:22:43.718Z,3.75
2019-01-27T05:23:43.710Z,3.80
2019-01-27T05:24:43.704Z,3.82
2019-01-27T05:25:43.693Z,3.89
2019-01-27T05:26:43.696Z,3.82
2019-01-27T05:27:43.681Z,3.80
2019-01-27T05:28:43.673Z,3.76
2019-01-27T05:29:43.667Z,3.82
2019-01-27T05:30:43.659Z,3.83
2019-01-27T05:31:43.664Z,3.88
2019-01-27T05:32:43.643Z,3.78
2019-01-27T05:33:43.645Z,3.82
2019-01-27T05:34:43.630Z,3.82
2019-01-27T05:35:43.624Z,3.83
2019-01-27T05:36:43.615Z,3.82
2019-01-27T05:37:43.616Z,3.79
2019-01-27T05:38:43.601Z,3.80
2019-01-27T05:39:43.596Z,3.88
2019-01-27T05:40:43.585Z,3.90
2019-01-27T05:41:43.580Z,3.89
2019-01-27T05:42:43.573Z,3.89
2019-01-27T05:43:43.570Z,3.86
2019-01-27T05:44:50.981Z,3.79
2019-01-27T05:46:36.766Z,3.83
2019-01-27T05:47:36.445Z,3.83
2019-01-27T05:49:29.553Z,3.85
2019-01-27T05:50:29.457Z,3.83
2019-01-27T05:52:22.481Z,3.80
2019-01-27T05:53:22.382Z,3.80
2019-01-27T05:55:15.435Z,3.89
2019-01-27T05:56:15.300Z,3.75
2019-01-27T05:57:15.346Z,3.79
2019-01-27T05:58:15.255Z,3.82
2019-01-27T05:59:15.275Z,3.79
2019-01-27T06:00:15.218Z,3.82
2019-01-27T06:01:15.213Z,3.92
2019-01-27T06:02:15.207Z,3.90
2019-01-27T06:03:14.958Z,3.96
2019-01-27T06:04:16.383Z,3.92
2019-01-27T06:05:15.201Z,3.92
2019-01-27T06:06:15.167Z,3.79
2019-01-27T06:07:15.264Z,3.89
2019-01-27T06:08:15.193Z,3.86
2019-01-27T06:09:15.242Z,3.89
2019-01-27T06:10:15.180Z,3.83
2019-01-27T06:11:15.168Z,3.83
2019-01-27T06:12:15.196Z,3.83
2019-01-27T06:13:14.898Z,3.71
2019-01-27T06:14:15.342Z,3.71
2019-01-27T06:15:15.126Z,3.90
2019-01-27T06:16:15.169Z,3.71
2019-01-27T06:17:15.106Z,3.78
2019-01-27T06:18:15.204Z,3.79
2019-01-27T06:19:15.072Z,3.76
2019-01-27T06:20:15.248Z,3.71
2019-01-27T06:21:15.145Z,3.62
2019-01-27T06:22:15.455Z,3.68
2019-01-27T06:23:15.103Z,3.71
2019-01-27T06:24:15.047Z,3.67
2019-01-27T06:25:15.045Z,3.70
2019-01-27T06:26:15.075Z,3.68
2019-01-27T06:27:15.151Z,3.61
2019-01-27T06:28:15.072Z,3.62
2019-01-27T06:29:15.144Z,3.60
2019-01-27T06:30:15.090Z,3.65
2019-01-27T06:31:15.120Z,3.62
2019-01-27T06:32:15.043Z,3.61
2019-01-27T06:33:15.586Z,3.64
2019-01-27T06:34:15.141Z,3.65
2019-01-27T06:35:14.975Z,3.60
2019-01-27T06:36:15.060Z,3.58
2019-01-27T06:37:14.753Z,3.60
2019-01-27T06:38:15.003Z,3.57
2019-01-27T06:39:15.010Z,3.65
2019-01-27T06:40:14.993Z,3.58
2019-01-27T06:41:14.947Z,3.62
2019-01-27T06:42:15.018Z,3.61
2019-01-27T06:43:14.691Z,3.62
2019-01-27T06:44:14.641Z,3.62
2019-01-27T06:45:14.674Z,3.68
2019-01-27T06:46:14.918Z,3.54
2019-01-27T06:47:14.930Z,3.64
2019-01-27T06:48:14.881Z,3.54
2019-01-27T06:49:14.829Z,3.54
2019-01-27T06:50:14.559Z,3.54
2019-01-27T06:51:14.556Z,3.53
2019-01-27T06:52:14.545Z,3.53
2019-01-27T06:53:14.538Z,3.60
2019-01-27T06:54:14.531Z,3.54
2019-01-27T06:55:14.522Z,3.61
2019-01-27T06:56:14.517Z,3.57
2019-01-27T06:57:14.508Z,3.65
2019-01-27T06:58:14.501Z,3.64
2019-01-27T06:59:14.499Z,3.58
2019-01-27T07:00:14.492Z,3.61
2019-01-27T07:01:14.486Z,3.54
2019-01-27T07:02:14.473Z,3.60
2019-01-27T07:03:14.465Z,3.57
2019-01-27T07:04:14.456Z,3.67
2019-01-27T07:05:14.450Z,3.61
2019-01-27T07:06:14.445Z,3.60
2019-01-27T07:07:14.433Z,3.58
2019-01-27T07:08:14.428Z,3.57
2019-01-27T07:09:14.418Z,3.61
2019-01-27T07:10:14.414Z,3.67
2019-01-27T07:11:14.405Z,3.54
2019-01-27T07:12:14.400Z,3.54
2019-01-27T07:13:14.401Z,3.62
2019-01-27T07:14:14.384Z,3.61
2019-01-27T07:15:21.882Z,3.57
2019-01-27T07:17:07.754Z,3.52
2019-01-27T07:18:07.443Z,3.57
2019-01-27T07:20:00.565Z,3.61
2019-01-27T07:21:00.335Z,3.54
2019-01-27T07:22:53.555Z,3.61
2019-01-27T07:23:53.513Z,3.58
2019-01-27T07:25:47.318Z,3.57
2019-01-27T07:26:47.071Z,3.49
2019-01-27T07:28:40.713Z,3.60
2019-01-27T07:29:40.540Z,3.60
2019-01-27T07:31:33.507Z,3.61
2019-01-27T07:32:33.375Z,3.65
2019-01-27T07:34:26.594Z,3.65
2019-01-27T07:35:26.145Z,3.57
2019-01-27T07:37:19.316Z,3.58
2019-01-27T07:38:18.969Z,3.58
2019-01-27T07:40:12.195Z,3.61
2019-01-27T07:41:11.800Z,3.62
2019-01-27T07:43:05.030Z,3.60
2019-01-27T07:44:04.746Z,3.60
2019-01-27T07:45:58.547Z,3.49
2019-01-27T07:46:58.427Z,3.42
2019-01-27T07:48:51.771Z,3.46
2019-01-27T07:49:52.036Z,3.47
2019-01-27T07:51:44.722Z,3.40
2019-01-27T07:52:44.830Z,3.49
2019-01-27T07:54:37.593Z,3.43
2019-01-27T07:55:37.551Z,3.53
2019-01-27T07:57:31.379Z,3.44
2019-01-27T07:58:30.687Z,3.54
2019-01-27T08:00:23.482Z,3.53
2019-01-27T08:01:23.377Z,3.61
2019-01-27T08:03:18.609Z,3.72
2019-01-27T08:04:23.460Z,3.64
2019-01-27T08:06:09.129Z,3.58
2019-01-27T08:07:09.064Z,3.64
2019-01-27T08:09:02.374Z,3.62
2019-01-27T08:10:02.239Z,3.71
2019-01-27T08:11:55.720Z,3.62
2019-01-27T08:12:55.638Z,3.60
2019-01-27T08:14:49.191Z,3.52
2019-01-27T08:15:49.231Z,3.54
2019-01-27T08:17:43.110Z,3.61
2019-01-27T08:18:42.559Z,3.62
2019-01-27T08:20:35.879Z,3.57
2019-01-27T08:21:35.761Z,3.65
2019-01-27T08:23:29.245Z,3.60
2019-01-27T08:24:29.167Z,3.68
2019-01-27T08:26:23.066Z,3.57
2019-01-27T08:27:22.975Z,3.67
2019-01-27T08:29:15.893Z,3.67
2019-01-27T08:30:16.040Z,3.75
2019-01-27T08:32:08.830Z,3.90
2019-01-27T08:33:08.681Z,3.92
2019-01-27T08:35:01.733Z,3.96
2019-01-27T08:36:01.785Z,4.08
2019-01-27T08:37:55.358Z,4.06
2019-01-27T08:38:55.288Z,4.10
2019-01-27T08:40:48.723Z,4.08
2019-01-27T08:41:48.620Z,4.19
2019-01-27T08:43:42.058Z,4.14
2019-01-27T08:44:42.043Z,4.14
2019-01-27T08:46:35.754Z,4.15
2019-01-27T08:47:35.870Z,4.10
2019-01-27T08:49:28.796Z,4.04
2019-01-27T08:50:28.624Z,4.04
2019-01-27T08:51:28.268Z,3.97
2019-01-27T08:52:28.373Z,3.94
2019-01-27T08:53:28.495Z,4.01
2019-01-27T08:54:28.487Z,3.96
2019-01-27T08:55:28.588Z,4.00
2019-01-27T08:56:28.496Z,3.94
2019-01-27T08:57:28.988Z,4.06
2019-01-27T08:58:28.199Z,4.10
2019-01-27T08:59:28.192Z,4.21
2019-01-27T09:00:28.191Z,4.19
2019-01-27T09:01:36.462Z,4.25
2019-01-27T09:03:21.592Z,4.24
2019-01-27T09:04:21.244Z,4.57
2019-01-27T09:06:14.325Z,4.40
2019-01-27T09:07:13.926Z,4.29
2019-01-27T09:09:07.171Z,4.04
2019-01-27T09:10:06.911Z,4.16
2019-01-27T09:12:00.068Z,4.12
2019-01-27T09:13:00.073Z,4.19
2019-01-27T09:14:53.521Z,4.26
2019-01-27T09:15:53.478Z,4.39
2019-01-27T09:17:47.454Z,4.64
2019-01-27T09:18:46.578Z,4.83
2019-01-27T09:20:40.297Z,4.65
2019-01-27T09:21:39.863Z,4.51
2019-01-27T09:23:33.638Z,4.28
2019-01-27T09:24:33.451Z,4.28
2019-01-27T09:25:33.359Z,4.36
2019-01-27T09:26:33.684Z,4.40
2019-01-27T09:27:33.704Z,4.36
2019-01-27T09:28:33.323Z,4.47
2019-01-27T09:29:33.310Z,4.34
2019-01-27T09:30:33.289Z,4.28
2019-01-27T09:31:33.283Z,4.29
2019-01-27T09:32:33.276Z,4.33
2019-01-27T09:33:33.277Z,4.29
2019-01-27T09:34:33.281Z,4.33
2019-01-27T09:35:33.281Z,4.29
2019-01-27T09:36:33.319Z,4.18
2019-01-27T09:37:33.289Z,4.19
2019-01-27T09:38:33.259Z,4.10
2019-01-27T09:39:33.274Z,4.14
2019-01-27T09:40:33.268Z,4.22
2019-01-27T09:41:33.256Z,4.22
2019-01-27T09:42:33.211Z,4.28
2019-01-27T09:43:33.229Z,4.28
2019-01-27T09:44:33.210Z,4.24
2019-01-27T09:45:33.244Z,4.29
2019-01-27T09:46:33.218Z,4.33
2019-01-27T09:47:33.215Z,4.29
2019-01-27T09:48:33.224Z,4.34
2019-01-27T09:49:33.208Z,4.40
2019-01-27T09:50:33.173Z,4.44
2019-01-27T09:51:33.205Z,4.40
2019-01-27T09:52:33.182Z,4.39
2019-01-27T09:53:33.143Z,4.39
2019-01-27T09:54:33.138Z,4.37
2019-01-27T09:55:33.189Z,4.51
2019-01-27T09:56:33.122Z,4.50
2019-01-27T09:57:33.113Z,4.54
2019-01-27T09:58:33.127Z,4.59
2019-01-27T09:59:33.143Z,4.64
2019-01-27T10:00:33.092Z,4.69
2019-01-27T10:01:33.113Z,4.69
2019-01-27T10:02:34.860Z,4.65
2019-01-27T10:03:33.103Z,4.59
2019-01-27T10:04:33.092Z,4.72
2019-01-27T10:05:33.094Z,4.65
2019-01-27T10:06:33.087Z,4.64
2019-01-27T10:07:33.081Z,4.70
2019-01-27T10:08:33.041Z,4.65
2019-01-27T10:09:33.058Z,4.67
2019-01-27T10:10:33.041Z,4.65
2019-01-27T10:11:33.024Z,4.91
2019-01-27T10:12:33.021Z,5.10
2019-01-27T10:13:33.970Z,4.98
2019-01-27T10:14:33.031Z,5.12
2019-01-27T10:15:33.011Z,5.13
2019-01-27T10:16:33.032Z,5.13
2019-01-27T10:17:32.999Z,5.04
2019-01-27T10:18:33.013Z,4.96
2019-01-27T10:19:32.998Z,4.94
2019-01-27T10:20:32.972Z,4.88
2019-01-27T10:21:32.969Z,4.79
2019-01-27T10:22:32.992Z,4.77
2019-01-27T10:23:32.967Z,4.80
2019-01-27T10:24:32.969Z,4.86
2019-01-27T10:25:32.951Z,4.86
2019-01-27T10:26:32.960Z,4.88
2019-01-27T10:27:32.944Z,4.94
2019-01-27T10:28:32.927Z,4.91
2019-01-27T10:29:32.925Z,5.02
2019-01-27T10:30:32.943Z,4.99
2019-01-27T10:31:32.954Z,4.96
2019-01-27T10:32:32.942Z,4.83
2019-01-27T10:33:32.926Z,4.84
2019-01-27T10:34:32.903Z,4.86
2019-01-27T10:35:32.917Z,4.83
2019-01-27T10:36:32.895Z,4.83
2019-01-27T10:37:32.911Z,4.73
2019-01-27T10:38:32.905Z,4.77
2019-01-27T10:39:32.867Z,4.84
2019-01-27T10:40:39.883Z,4.75
2019-01-27T10:41:32.881Z,4.89
2019-01-27T10:42:32.861Z,4.92
2019-01-27T10:43:32.848Z,4.86
2019-01-27T10:44:32.934Z,4.84
2019-01-27T10:45:32.858Z,4.88
2019-01-27T10:46:32.838Z,4.88
2019-01-27T10:47:32.816Z,4.88
2019-01-27T10:48:32.821Z,4.77
2019-01-27T10:49:32.830Z,4.76
2019-01-27T10:50:32.830Z,4.80
2019-01-27T10:51:32.799Z,4.79
2019-01-27T10:52:33.031Z,4.84
2019-01-27T10:53:34.931Z,4.92
2019-01-27T10:54:32.806Z,4.88
2019-01-27T10:55:32.795Z,4.89
2019-01-27T10:56:32.770Z,4.94
2019-01-27T10:57:32.777Z,4.80
2019-01-27T10:58:32.770Z,4.83
2019-01-27T10:59:32.750Z,4.77
2019-01-27T11:00:32.790Z,4.83
2019-01-27T11:01:32.767Z,4.88
2019-01-27T11:02:37.146Z,4.75
2019-01-27T11:03:32.732Z,4.84
2019-01-27T11:04:32.758Z,4.98
2019-01-27T11:05:32.714Z,5.10
2019-01-27T11:06:32.735Z,5.14
2019-01-27T11:07:32.733Z,5.16
2019-01-27T11:08:32.698Z,5.12
2019-01-27T11:09:34.273Z,5.02
2019-01-27T11:10:32.700Z,5.05
2019-01-27T11:11:32.686Z,4.99
2019-01-27T11:12:32.679Z,5.02
2019-01-27T11:13:32.684Z,4.96
2019-01-27T11:14:32.674Z,5.04
2019-01-27T11:15:33.479Z,4.98
2019-01-27T11:16:32.664Z,4.92
2019-01-27T11:17:32.679Z,4.88
2019-01-27T11:18:32.668Z,4.88
2019-01-27T11:19:32.650Z,4.92
2019-01-27T11:20:39.743Z,4.94
2019-01-27T11:21:32.647Z,4.98
2019-01-27T11:22:32.634Z,4.95
2019-01-27T11:23:32.608Z,5.01
2019-01-27T11:24:32.601Z,4.92
2019-01-27T11:25:32.597Z,4.89
2019-01-27T11:26:32.591Z,4.89
2019-01-27T11:27:33.066Z,4.76
2019-01-27T11:28:32.597Z,4.80
2019-01-27T11:29:32.604Z,4.73
2019-01-27T11:30:32.593Z,4.80
2019-01-27T11:31:32.573Z,4.79
2019-01-27T11:32:32.554Z,4.77
2019-01-27T11:33:32.546Z,4.76
2019-01-27T11:34:32.577Z,4.76
2019-01-27T11:35:32.559Z,4.70
2019-01-27T11:36:32.546Z,4.75
2019-01-27T11:37:32.531Z,4.80
2019-01-27T11:38:32.518Z,4.75
2019-01-27T11:39:32.521Z,4.70
2019-01-27T11:40:32.510Z,4.62
2019-01-27T11:41:32.526Z,4.65
2019-01-27T11:42:32.553Z,4.77
2019-01-27T11:43:32.496Z,4.69
2019-01-27T11:44:32.485Z,4.73
2019-01-27T11:45:32.482Z,4.70
2019-01-27T11:46:32.484Z,4.65
2019-01-27T11:47:32.491Z,4.69
2019-01-27T11:48:32.472Z,4.67
2019-01-27T11:49:32.468Z,4.70
2019-01-27T11:50:32.439Z,4.69
2019-01-27T11:51:32.452Z,4.62
2019-01-27T11:52:32.439Z,4.75
2019-01-27T11:53:32.433Z,4.72
2019-01-27T11:54:32.414Z,4.76
2019-01-27T11:55:32.408Z,4.76
2019-01-27T11:56:32.397Z,4.76
2019-01-27T11:57:32.409Z,4.77
2019-01-27T11:58:32.394Z,4.80
2019-01-27T11:59:32.380Z,4.75
2019-01-27T12:00:32.379Z,4.72
2019-01-27T12:01:32.381Z,4.70
2019-01-27T12:02:32.360Z,4.84
2019-01-27T12:03:32.363Z,4.79
2019-01-27T12:04:32.349Z,4.75
2019-01-27T12:05:32.342Z,4.70
2019-01-27T12:06:32.333Z,4.73
2019-01-27T12:07:32.329Z,4.69
2019-01-27T12:08:32.327Z,4.64
2019-01-27T12:09:32.352Z,4.65
2019-01-27T12:10:32.311Z,4.65
2019-01-27T12:11:32.306Z,4.67
2019-01-27T12:12:32.382Z,4.70
2019-01-27T12:13:32.293Z,4.69
2019-01-27T12:14:32.337Z,4.65
2019-01-27T12:15:32.274Z,4.65
2019-01-27T12:16:32.279Z,4.65
2019-01-27T12:17:32.267Z,4.64
2019-01-27T12:18:32.276Z,4.62
2019-01-27T12:19:32.250Z,4.67
2019-01-27T12:20:32.246Z,4.65
2019-01-27T12:21:32.249Z,4.57
2019-01-27T12:22:32.237Z,4.62
2019-01-27T12:23:32.263Z,4.64
2019-01-27T12:24:32.236Z,4.70
2019-01-27T12:25:32.230Z,4.69
2019-01-27T12:26:32.204Z,4.65
2019-01-27T12:27:32.203Z,4.69
2019-01-27T12:28:32.222Z,4.69
2019-01-27T12:29:32.246Z,4.70
2019-01-27T12:30:32.179Z,4.75
2019-01-27T12:31:32.184Z,4.73
2019-01-27T12:32:32.164Z,4.84
2019-01-27T12:33:32.157Z,4.83
2019-01-27T12:34:32.154Z,4.69
2019-01-27T12:35:32.147Z,4.64
2019-01-27T12:36:32.147Z,4.65
2019-01-27T12:37:32.141Z,4.76
2019-01-27T12:38:32.135Z,4.70
2019-01-27T12:39:32.153Z,4.59
2019-01-27T12:40:32.139Z,4.67
2019-01-27T12:41:32.114Z,4.70
2019-01-27T12:42:32.103Z,4.64
2019-01-27T12:43:32.116Z,4.69
2019-01-27T12:44:32.097Z,4.67
2019-01-27T12:45:32.086Z,4.76
2019-01-27T12:46:32.097Z,4.73
2019-01-27T12:47:32.108Z,4.69
2019-01-27T12:48:32.065Z,4.67
2019-01-27T12:49:32.071Z,4.73
2019-01-27T12:50:32.046Z,4.67
2019-01-27T12:51:32.045Z,4.69
2019-01-27T12:52:32.036Z,4.67
2019-01-27T12:53:32.058Z,4.65
2019-01-27T12:54:32.036Z,4.65
2019-01-27T12:55:32.025Z,4.69
2019-01-27T12:56:32.005Z,4.64
2019-01-27T12:57:31.998Z,4.59
2019-01-27T12:58:31.992Z,4.73
2019-01-27T12:59:31.987Z,4.67
2019-01-27T13:00:31.980Z,4.65
2019-01-27T13:01:31.972Z,4.67
2019-01-27T13:02:31.972Z,4.67
2019-01-27T13:03:31.962Z,4.62
2019-01-27T13:04:31.961Z,4.64
2019-01-27T13:05:31.947Z,4.69
2019-01-27T13:06:31.945Z,4.67
2019-01-27T13:07:31.938Z,4.64
2019-01-27T13:08:31.927Z,4.64
2019-01-27T13:09:31.922Z,4.65
2019-01-27T13:10:31.921Z,4.65
2019-01-27T13:11:31.909Z,4.72
2019-01-27T13:12:31.900Z,4.67
2019-01-27T13:13:31.896Z,4.67
2019-01-27T13:14:31.898Z,4.73
2019-01-27T13:15:31.878Z,4.86
2019-01-27T13:16:31.878Z,4.79
2019-01-27T13:17:31.867Z,4.79
2019-01-27T13:18:31.859Z,4.77
2019-01-27T13:19:31.857Z,4.73
2019-01-27T13:20:31.853Z,4.83
2019-01-27T13:21:31.848Z,4.76
2019-01-27T13:22:31.838Z,4.77
2019-01-27T13:23:31.846Z,4.88
2019-01-27T13:24:31.825Z,4.83
2019-01-27T13:25:31.814Z,4.76
2019-01-27T13:26:31.808Z,4.76
2019-01-27T13:27:31.803Z,4.79
2019-01-27T13:28:31.887Z,4.83
2019-01-27T13:29:31.800Z,4.76
2019-01-27T13:30:31.786Z,4.80
2019-01-27T13:31:31.812Z,4.84
2019-01-27T13:32:31.778Z,4.88
2019-01-27T13:33:31.798Z,4.86
2019-01-27T13:34:31.757Z,4.91
2019-01-27T13:35:31.754Z,4.91
2019-01-27T13:36:31.744Z,4.94
2019-01-27T13:37:31.737Z,4.89
2019-01-27T13:38:31.744Z,4.89
2019-01-27T13:39:31.726Z,4.88
2019-01-27T13:40:31.718Z,4.94
2019-01-27T13:41:31.726Z,4.95
2019-01-27T13:42:31.707Z,4.96
2019-01-27T13:43:31.698Z,4.94
2019-01-27T13:44:31.696Z,4.98
2019-01-27T13:45:31.709Z,4.95
2019-01-27T13:46:31.683Z,5.01
2019-01-27T13:47:39.102Z,5.07
2019-01-27T13:49:26.043Z,5.10
2019-01-27T13:50:25.950Z,5.07
2019-01-27T13:51:25.923Z,5.07
2019-01-27T13:52:25.767Z,5.05
2019-01-27T13:53:25.711Z,5.05
2019-01-27T13:54:25.696Z,5.07
2019-01-27T13:55:25.704Z,5.05
2019-01-27T13:56:25.691Z,5.07
2019-01-27T13:57:25.693Z,5.07
2019-01-27T13:58:25.668Z,5.04
2019-01-27T13:59:25.689Z,5.09
2019-01-27T14:00:25.944Z,5.09
2019-01-27T14:01:25.911Z,4.99
2019-01-27T14:02:26.027Z,5.10
2019-01-27T14:03:34.129Z,5.02
2019-01-27T14:05:19.411Z,4.99
2019-01-27T14:06:19.082Z,5.02
2019-01-27T14:08:12.262Z,4.99
2019-01-27T14:09:19.349Z,4.98
2019-01-27T14:11:05.771Z,4.96
2019-01-27T14:12:05.070Z,4.99
2019-01-27T14:13:58.032Z,4.94
2019-01-27T14:14:58.001Z,4.94
2019-01-27T14:16:50.939Z,4.88
2019-01-27T14:17:50.717Z,4.84
2019-01-27T14:19:43.787Z,4.95
2019-01-27T14:20:44.191Z,4.86
2019-01-27T14:22:37.236Z,4.89
2019-01-27T14:23:36.826Z,4.80
2019-01-27T14:25:30.454Z,4.76
2019-01-27T14:26:30.002Z,4.79
2019-01-27T14:28:23.158Z,4.79
2019-01-27T14:29:22.839Z,4.86
2019-01-27T14:31:16.831Z,4.79
2019-01-27T14:32:16.726Z,4.91
2019-01-27T14:34:10.108Z,4.91
2019-01-27T14:35:09.604Z,4.86
2019-01-27T14:37:02.528Z,4.80
2019-01-27T14:38:02.299Z,4.86
2019-01-27T14:39:55.474Z,4.89
2019-01-27T14:40:56.890Z,4.75
2019-01-27T14:42:48.327Z,4.80
2019-01-27T14:43:48.250Z,4.80
2019-01-27T14:45:41.195Z,4.83
2019-01-27T14:46:41.129Z,4.80
2019-01-27T14:48:34.574Z,4.91
2019-01-27T14:49:34.268Z,4.76
2019-01-27T14:51:28.011Z,4.79
2019-01-27T14:52:27.727Z,4.79
2019-01-27T14:54:20.864Z,4.84
2019-01-27T14:55:20.780Z,4.83
2019-01-27T14:57:14.356Z,4.94
2019-01-27T14:58:14.014Z,4.79
2019-01-27T15:00:07.131Z,4.89
2019-01-27T15:01:06.859Z,4.80
2019-01-27T15:02:59.925Z,4.94